sensor_id;sensor_type;location;lat;lon;timestamp;temperature;humidity
37412;DHT22;23278;52.110;6.050;2023-03-15T00:00:47;3.40;99.90
37412;DHT22;23278;52.110;6.050;2023-03-15T00:03:13;3.40;99.90
37412;DHT22;23278;52.110;6.050;2023-03-15T00:05:44;3.40;99.90
37412;DHT22;23278;52.110;6.050;2023-03-15T00:08:10;3.40;99.90
37412;DHT22;23278;52.110;6.050;2023-03-15T00:10:44;3.30;99.90
37412;DHT22;23278;52.110;6.050;2023-03-15T00:13:11;3.20;99.90
37412;DHT22;23278;52.110;6.050;2023-03-15T00:15:45;3.20;99.90
37412;DHT22;23278;52.110;6.050;2023-03-15T00:18:12;3.10;99.90
37412;DHT22;23278;52.110;6.050;2023-03-15T00:20:38;3.10;99.90
37412;DHT22;23278;52.110;6.050;2023-03-15T00:23:03;3.20;99.90
37412;DHT22;23278;52.110;6.050;2023-03-15T00:25:29;3.20;99.90
37412;DHT22;23278;52.110;6.050;2023-03-15T00:27:55;3.20;99.90
37412;DHT22;23278;52.110;6.050;2023-03-15T00:30:21;3.20;99.90
37412;DHT22;23278;52.110;6.050;2023-03-15T00:32:47;3.10;99.90
37412;DHT22;23278;52.110;6.050;2023-03-15T00:35:13;3.10;99.90
37412;DHT22;23278;52.110;6.050;2023-03-15T00:37:39;3.10;99.90
37412;DHT22;23278;52.110;6.050;2023-03-15T00:40:05;3.10;99.90
37412;DHT22;23278;52.110;6.050;2023-03-15T00:42:33;3.00;99.90
37412;DHT22;23278;52.110;6.050;2023-03-15T00:44:58;2.90;99.90
37412;DHT22;23278;52.110;6.050;2023-03-15T00:47:24;2.80;99.90
37412;DHT22;23278;52.110;6.050;2023-03-15T00:49:52;2.70;99.90
37412;DHT22;23278;52.110;6.050;2023-03-15T00:52:18;2.60;99.90
37412;DHT22;23278;52.110;6.050;2023-03-15T00:54:51;2.50;99.90
37412;DHT22;23278;52.110;6.050;2023-03-15T00:57:18;2.50;99.90
37412;DHT22;23278;52.110;6.050;2023-03-15T00:59:43;2.50;99.90
37412;DHT22;23278;52.110;6.050;2023-03-15T01:02:10;2.50;99.90
37412;DHT22;23278;52.110;6.050;2023-03-15T01:04:36;2.50;99.90
37412;DHT22;23278;52.110;6.050;2023-03-15T01:07:02;2.50;99.90
37412;DHT22;23278;52.110;6.050;2023-03-15T01:09:28;2.50;99.90
37412;DHT22;23278;52.110;6.050;2023-03-15T01:11:56;2.40;99.90
37412;DHT22;23278;52.110;6.050;2023-03-15T01:14:23;2.40;99.90
37412;DHT22;23278;52.110;6.050;2023-03-15T01:16:49;2.30;99.90
37412;DHT22;23278;52.110;6.050;2023-03-15T01:19:15;2.30;99.90
37412;DHT22;23278;52.110;6.050;2023-03-15T01:21:41;2.20;99.90
37412;DHT22;23278;52.110;6.050;2023-03-15T01:24:12;2.20;99.90
37412;DHT22;23278;52.110;6.050;2023-03-15T01:26:39;2.10;99.90
37412;DHT22;23278;52.110;6.050;2023-03-15T01:29:05;2.10;99.90
37412;DHT22;23278;52.110;6.050;2023-03-15T01:31:31;2.10;99.90
37412;DHT22;23278;52.110;6.050;2023-03-15T01:33:58;2.10;99.90
37412;DHT22;23278;52.110;6.050;2023-03-15T01:36:27;2.10;99.90
37412;DHT22;23278;52.110;6.050;2023-03-15T01:38:54;2.10;99.90
37412;DHT22;23278;52.110;6.050;2023-03-15T01:41:25;2.10;99.90
37412;DHT22;23278;52.110;6.050;2023-03-15T01:43:52;2.00;99.90
37412;DHT22;23278;52.110;6.050;2023-03-15T01:49:06;2.00;99.90
37412;DHT22;23278;52.110;6.050;2023-03-15T01:54:16;2.00;99.90
37412;DHT22;23278;52.110;6.050;2023-03-15T01:56:49;2.00;99.90
37412;DHT22;23278;52.110;6.050;2023-03-15T01:59:22;2.00;99.90
37412;DHT22;23278;52.110;6.050;2023-03-15T02:01:50;2.10;99.90
37412;DHT22;23278;52.110;6.050;2023-03-15T02:04:23;2.10;99.90
37412;DHT22;23278;52.110;6.050;2023-03-15T02:06:54;2.10;99.90
37412;DHT22;23278;52.110;6.050;2023-03-15T02:09:31;2.10;99.90
37412;DHT22;23278;52.110;6.050;2023-03-15T02:12:00;2.10;99.90
37412;DHT22;23278;52.110;6.050;2023-03-15T02:14:27;2.20;99.90
37412;DHT22;23278;52.110;6.050;2023-03-15T02:16:54;2.20;99.90
37412;DHT22;23278;52.110;6.050;2023-03-15T02:25:10;2.20;99.90
37412;DHT22;23278;52.110;6.050;2023-03-15T02:27:40;2.20;99.90
37412;DHT22;23278;52.110;6.050;2023-03-15T02:30:07;2.20;99.90
37412;DHT22;23278;52.110;6.050;2023-03-15T02:32:34;2.20;99.90
37412;DHT22;23278;52.110;6.050;2023-03-15T02:34:59;2.30;99.90
37412;DHT22;23278;52.110;6.050;2023-03-15T02:37:25;2.30;99.90
37412;DHT22;23278;52.110;6.050;2023-03-15T02:39:52;2.30;99.90
37412;DHT22;23278;52.110;6.050;2023-03-15T02:42:18;2.20;99.90
37412;DHT22;23278;52.110;6.050;2023-03-15T02:44:47;2.20;99.90
37412;DHT22;23278;52.110;6.050;2023-03-15T02:47:20;2.20;99.90
37412;DHT22;23278;52.110;6.050;2023-03-15T02:49:52;2.10;99.90
37412;DHT22;23278;52.110;6.050;2023-03-15T02:52:19;2.10;99.90
37412;DHT22;23278;52.110;6.050;2023-03-15T02:54:45;2.10;99.90
37412;DHT22;23278;52.110;6.050;2023-03-15T02:57:13;2.10;99.90
37412;DHT22;23278;52.110;6.050;2023-03-15T02:59:40;2.10;99.90
37412;DHT22;23278;52.110;6.050;2023-03-15T03:02:10;2.00;99.90
37412;DHT22;23278;52.110;6.050;2023-03-15T03:04:37;2.00;99.90
37412;DHT22;23278;52.110;6.050;2023-03-15T03:07:03;1.90;99.90
37412;DHT22;23278;52.110;6.050;2023-03-15T03:09:37;1.90;99.90
37412;DHT22;23278;52.110;6.050;2023-03-15T03:12:04;1.80;99.90
37412;DHT22;23278;52.110;6.050;2023-03-15T03:14:31;1.80;99.90
37412;DHT22;23278;52.110;6.050;2023-03-15T03:16:57;1.80;99.90
37412;DHT22;23278;52.110;6.050;2023-03-15T03:19:23;1.80;99.90
37412;DHT22;23278;52.110;6.050;2023-03-15T03:21:51;1.70;99.90
37412;DHT22;23278;52.110;6.050;2023-03-15T03:24:18;1.70;99.90
37412;DHT22;23278;52.110;6.050;2023-03-15T03:26:45;1.70;99.90
37412;DHT22;23278;52.110;6.050;2023-03-15T03:29:13;1.70;99.90
37412;DHT22;23278;52.110;6.050;2023-03-15T03:31:42;1.60;99.90
37412;DHT22;23278;52.110;6.050;2023-03-15T03:34:09;1.60;99.90
37412;DHT22;23278;52.110;6.050;2023-03-15T03:36:36;1.60;99.90
37412;DHT22;23278;52.110;6.050;2023-03-15T03:39:03;1.60;99.90
37412;DHT22;23278;52.110;6.050;2023-03-15T03:41:29;1.60;99.90
37412;DHT22;23278;52.110;6.050;2023-03-15T03:43:55;1.60;99.90
37412;DHT22;23278;52.110;6.050;2023-03-15T03:46:22;1.60;99.90
37412;DHT22;23278;52.110;6.050;2023-03-15T03:48:51;1.50;99.90
37412;DHT22;23278;52.110;6.050;2023-03-15T03:51:17;1.50;99.90
37412;DHT22;23278;52.110;6.050;2023-03-15T03:53:43;1.50;99.90
37412;DHT22;23278;52.110;6.050;2023-03-15T03:56:09;1.50;99.90
37412;DHT22;23278;52.110;6.050;2023-03-15T03:58:36;1.50;99.90
37412;DHT22;23278;52.110;6.050;2023-03-15T04:01:18;1.40;99.90
37412;DHT22;23278;52.110;6.050;2023-03-15T04:03:49;1.40;99.90
37412;DHT22;23278;52.110;6.050;2023-03-15T04:06:18;1.40;99.90
37412;DHT22;23278;52.110;6.050;2023-03-15T04:08:46;1.40;99.90
37412;DHT22;23278;52.110;6.050;2023-03-15T04:11:17;1.40;99.90
37412;DHT22;23278;52.110;6.050;2023-03-15T04:13:47;1.40;99.90
37412;DHT22;23278;52.110;6.050;2023-03-15T04:16:13;1.40;99.90
37412;DHT22;23278;52.110;6.050;2023-03-15T04:18:52;1.60;99.90
37412;DHT22;23278;52.110;6.050;2023-03-15T04:21:21;1.70;99.90
37412;DHT22;23278;52.110;6.050;2023-03-15T04:23:48;1.80;99.90
37412;DHT22;23278;52.110;6.050;2023-03-15T04:26:25;1.90;99.90
37412;DHT22;23278;52.110;6.050;2023-03-15T04:29:10;2.00;99.90
37412;DHT22;23278;52.110;6.050;2023-03-15T04:31:55;2.10;99.90
37412;DHT22;23278;52.110;6.050;2023-03-15T04:34:46;2.20;99.90
37412;DHT22;23278;52.110;6.050;2023-03-15T04:37:36;2.30;99.90
37412;DHT22;23278;52.110;6.050;2023-03-15T04:40:20;2.30;99.90
37412;DHT22;23278;52.110;6.050;2023-03-15T04:43:07;2.40;99.90
37412;DHT22;23278;52.110;6.050;2023-03-15T04:45:49;2.40;99.90
37412;DHT22;23278;52.110;6.050;2023-03-15T04:48:22;2.40;99.90
37412;DHT22;23278;52.110;6.050;2023-03-15T04:51:04;2.30;99.90
37412;DHT22;23278;52.110;6.050;2023-03-15T04:53:56;2.20;99.90
37412;DHT22;23278;52.110;6.050;2023-03-15T04:56:50;2.00;99.90
37412;DHT22;23278;52.110;6.050;2023-03-15T04:59:24;2.00;99.90
37412;DHT22;23278;52.110;6.050;2023-03-15T05:02:10;1.90;99.90
37412;DHT22;23278;52.110;6.050;2023-03-15T05:04:53;2.00;99.90
37412;DHT22;23278;52.110;6.050;2023-03-15T05:07:39;2.10;99.90
37412;DHT22;23278;52.110;6.050;2023-03-15T05:10:17;2.20;99.90
37412;DHT22;23278;52.110;6.050;2023-03-15T05:12:44;2.30;99.90
37412;DHT22;23278;52.110;6.050;2023-03-15T05:15:32;2.30;99.90
37412;DHT22;23278;52.110;6.050;2023-03-15T05:18:18;2.40;99.90
37412;DHT22;23278;52.110;6.050;2023-03-15T05:21:02;2.40;99.90
37412;DHT22;23278;52.110;6.050;2023-03-15T05:23:53;2.50;99.90
37412;DHT22;23278;52.110;6.050;2023-03-15T05:26:42;2.50;99.90
37412;DHT22;23278;52.110;6.050;2023-03-15T05:29:20;2.50;99.90
37412;DHT22;23278;52.110;6.050;2023-03-15T05:32:13;2.60;99.90
37412;DHT22;23278;52.110;6.050;2023-03-15T05:34:53;2.60;99.90
37412;DHT22;23278;52.110;6.050;2023-03-15T05:37:45;2.60;99.90
37412;DHT22;23278;52.110;6.050;2023-03-15T05:40:33;2.50;99.90
37412;DHT22;23278;52.110;6.050;2023-03-15T05:43:18;2.50;99.90
37412;DHT22;23278;52.110;6.050;2023-03-15T05:46:04;2.40;99.90
37412;DHT22;23278;52.110;6.050;2023-03-15T05:48:37;2.40;99.90
37412;DHT22;23278;52.110;6.050;2023-03-15T05:51:12;2.30;99.90
37412;DHT22;23278;52.110;6.050;2023-03-15T05:53:57;2.30;99.90
37412;DHT22;23278;52.110;6.050;2023-03-15T05:56:48;2.30;99.90
37412;DHT22;23278;52.110;6.050;2023-03-15T05:59:30;2.30;99.90
37412;DHT22;23278;52.110;6.050;2023-03-15T06:02:15;2.40;99.90
37412;DHT22;23278;52.110;6.050;2023-03-15T06:04:50;2.60;99.90
37412;DHT22;23278;52.110;6.050;2023-03-15T06:07:20;2.60;99.90
37412;DHT22;23278;52.110;6.050;2023-03-15T06:09:46;2.70;99.90
37412;DHT22;23278;52.110;6.050;2023-03-15T06:12:12;2.70;99.90
37412;DHT22;23278;52.110;6.050;2023-03-15T06:14:40;2.80;99.90
37412;DHT22;23278;52.110;6.050;2023-03-15T06:17:07;2.80;99.90
37412;DHT22;23278;52.110;6.050;2023-03-15T06:19:33;2.80;99.90
37412;DHT22;23278;52.110;6.050;2023-03-15T06:21:59;2.80;99.90
37412;DHT22;23278;52.110;6.050;2023-03-15T06:24:31;2.80;99.90
37412;DHT22;23278;52.110;6.050;2023-03-15T06:26:59;2.70;99.90
37412;DHT22;23278;52.110;6.050;2023-03-15T06:29:25;2.70;99.90
37412;DHT22;23278;52.110;6.050;2023-03-15T06:31:53;2.60;99.90
37412;DHT22;23278;52.110;6.050;2023-03-15T06:34:19;2.50;99.90
37412;DHT22;23278;52.110;6.050;2023-03-15T06:36:46;2.40;99.90
37412;DHT22;23278;52.110;6.050;2023-03-15T06:39:12;2.30;99.90
37412;DHT22;23278;52.110;6.050;2023-03-15T06:41:38;2.20;99.90
37412;DHT22;23278;52.110;6.050;2023-03-15T06:44:10;2.20;99.90
37412;DHT22;23278;52.110;6.050;2023-03-15T06:46:37;2.10;99.90
37412;DHT22;23278;52.110;6.050;2023-03-15T06:49:05;2.00;99.90
37412;DHT22;23278;52.110;6.050;2023-03-15T06:51:31;2.00;99.90
37412;DHT22;23278;52.110;6.050;2023-03-15T06:53:57;2.00;99.90
37412;DHT22;23278;52.110;6.050;2023-03-15T06:56:23;1.90;99.90
37412;DHT22;23278;52.110;6.050;2023-03-15T06:58:49;1.90;99.90
37412;DHT22;23278;52.110;6.050;2023-03-15T07:01:15;2.00;99.90
37412;DHT22;23278;52.110;6.050;2023-03-15T07:03:41;1.90;99.90
37412;DHT22;23278;52.110;6.050;2023-03-15T07:06:08;2.00;99.90
37412;DHT22;23278;52.110;6.050;2023-03-15T07:08:34;1.90;99.90
37412;DHT22;23278;52.110;6.050;2023-03-15T07:11:01;2.00;99.90
37412;DHT22;23278;52.110;6.050;2023-03-15T07:13:27;2.00;99.90
37412;DHT22;23278;52.110;6.050;2023-03-15T07:15:54;2.00;99.90
37412;DHT22;23278;52.110;6.050;2023-03-15T07:18:21;2.00;99.90
37412;DHT22;23278;52.110;6.050;2023-03-15T07:20:55;2.10;99.90
37412;DHT22;23278;52.110;6.050;2023-03-15T07:23:21;2.10;99.90
37412;DHT22;23278;52.110;6.050;2023-03-15T07:25:47;2.20;99.90
37412;DHT22;23278;52.110;6.050;2023-03-15T07:28:14;2.30;99.90
37412;DHT22;23278;52.110;6.050;2023-03-15T07:30:39;2.30;99.90
37412;DHT22;23278;52.110;6.050;2023-03-15T07:33:05;2.40;99.90
37412;DHT22;23278;52.110;6.050;2023-03-15T07:35:31;2.50;99.90
37412;DHT22;23278;52.110;6.050;2023-03-15T07:37:57;2.50;99.90
37412;DHT22;23278;52.110;6.050;2023-03-15T07:40:23;2.60;99.90
37412;DHT22;23278;52.110;6.050;2023-03-15T07:42:51;2.70;99.90
37412;DHT22;23278;52.110;6.050;2023-03-15T07:45:17;2.70;99.90
37412;DHT22;23278;52.110;6.050;2023-03-15T07:47:43;2.80;99.90
37412;DHT22;23278;52.110;6.050;2023-03-15T07:50:09;2.90;99.90
37412;DHT22;23278;52.110;6.050;2023-03-15T07:52:36;3.00;99.90
37412;DHT22;23278;52.110;6.050;2023-03-15T07:55:03;3.10;99.90
37412;DHT22;23278;52.110;6.050;2023-03-15T07:57:32;3.20;99.90
37412;DHT22;23278;52.110;6.050;2023-03-15T07:59:58;3.30;99.90
37412;DHT22;23278;52.110;6.050;2023-03-15T08:02:24;3.40;99.90
37412;DHT22;23278;52.110;6.050;2023-03-15T08:04:50;3.50;99.90
37412;DHT22;23278;52.110;6.050;2023-03-15T08:07:16;3.60;99.90
37412;DHT22;23278;52.110;6.050;2023-03-15T08:09:42;3.70;99.90
37412;DHT22;23278;52.110;6.050;2023-03-15T08:12:08;3.80;99.90
37412;DHT22;23278;52.110;6.050;2023-03-15T08:14:34;3.90;99.90
37412;DHT22;23278;52.110;6.050;2023-03-15T08:17:00;4.10;99.90
37412;DHT22;23278;52.110;6.050;2023-03-15T08:19:26;4.20;99.90
37412;DHT22;23278;52.110;6.050;2023-03-15T08:21:51;4.30;99.90
37412;DHT22;23278;52.110;6.050;2023-03-15T08:24:18;4.50;99.90
37412;DHT22;23278;52.110;6.050;2023-03-15T08:26:46;4.70;99.90
37412;DHT22;23278;52.110;6.050;2023-03-15T08:29:12;4.90;99.90
37412;DHT22;23278;52.110;6.050;2023-03-15T08:31:38;5.10;99.90
37412;DHT22;23278;52.110;6.050;2023-03-15T08:34:04;5.30;99.90
37412;DHT22;23278;52.110;6.050;2023-03-15T08:36:30;5.50;99.90
37412;DHT22;23278;52.110;6.050;2023-03-15T08:38:57;5.70;99.90
37412;DHT22;23278;52.110;6.050;2023-03-15T08:41:23;6.00;99.90
37412;DHT22;23278;52.110;6.050;2023-03-15T08:43:48;6.20;99.90
37412;DHT22;23278;52.110;6.050;2023-03-15T08:46:14;6.40;99.90
37412;DHT22;23278;52.110;6.050;2023-03-15T08:48:42;6.60;99.90
37412;DHT22;23278;52.110;6.050;2023-03-15T08:51:08;6.60;99.90
37412;DHT22;23278;52.110;6.050;2023-03-15T08:53:34;6.60;99.90
37412;DHT22;23278;52.110;6.050;2023-03-15T08:56:00;6.50;99.90
37412;DHT22;23278;52.110;6.050;2023-03-15T08:58:26;6.60;99.90
37412;DHT22;23278;52.110;6.050;2023-03-15T09:00:52;6.70;99.90
37412;DHT22;23278;52.110;6.050;2023-03-15T09:03:19;6.90;99.90
37412;DHT22;23278;52.110;6.050;2023-03-15T09:05:45;7.40;99.90
37412;DHT22;23278;52.110;6.050;2023-03-15T09:08:11;8.00;99.90
37412;DHT22;23278;52.110;6.050;2023-03-15T09:10:38;8.50;99.90
37412;DHT22;23278;52.110;6.050;2023-03-15T09:13:04;9.00;99.60
37412;DHT22;23278;52.110;6.050;2023-03-15T09:15:30;9.60;98.30
37412;DHT22;23278;52.110;6.050;2023-03-15T09:17:56;10.00;96.60
37412;DHT22;23278;52.110;6.050;2023-03-15T09:20:22;10.40;95.50
37412;DHT22;23278;52.110;6.050;2023-03-15T09:22:56;10.80;93.00
37412;DHT22;23278;52.110;6.050;2023-03-15T09:25:23;11.10;90.60
37412;DHT22;23278;52.110;6.050;2023-03-15T09:27:50;11.40;87.30
37412;DHT22;23278;52.110;6.050;2023-03-15T09:30:17;11.60;85.50
37412;DHT22;23278;52.110;6.050;2023-03-15T09:32:43;12.00;81.70
37412;DHT22;23278;52.110;6.050;2023-03-15T09:35:13;12.40;78.40
37412;DHT22;23278;52.110;6.050;2023-03-15T09:37:39;12.80;77.10
37412;DHT22;23278;52.110;6.050;2023-03-15T09:40:14;13.20;74.30
37412;DHT22;23278;52.110;6.050;2023-03-15T09:48:22;14.80;65.30
37412;DHT22;23278;52.110;6.050;2023-03-15T09:53:24;15.80;61.60
37412;DHT22;23278;52.110;6.050;2023-03-15T09:55:53;16.30;59.10
37412;DHT22;23278;52.110;6.050;2023-03-15T09:58:24;16.80;58.30
37412;DHT22;23278;52.110;6.050;2023-03-15T10:01:04;17.50;56.70
37412;DHT22;23278;52.110;6.050;2023-03-15T10:08:54;18.80;46.90
37412;DHT22;23278;52.110;6.050;2023-03-15T10:16:48;19.70;41.20
37412;DHT22;23278;52.110;6.050;2023-03-15T10:19:33;19.90;40.70
37412;DHT22;23278;52.110;6.050;2023-03-15T10:22:17;20.40;39.60
37412;DHT22;23278;52.110;6.050;2023-03-15T10:30:23;20.80;37.80
37412;DHT22;23278;52.110;6.050;2023-03-15T10:32:59;20.00;38.60
37412;DHT22;23278;52.110;6.050;2023-03-15T10:35:26;20.50;38.80
37412;DHT22;23278;52.110;6.050;2023-03-15T10:37:52;21.50;37.70
37412;DHT22;23278;52.110;6.050;2023-03-15T10:43:27;22.90;33.60
37412;DHT22;23278;52.110;6.050;2023-03-15T10:46:03;23.50;33.10
37412;DHT22;23278;52.110;6.050;2023-03-15T10:48:34;23.90;31.80
37412;DHT22;23278;52.110;6.050;2023-03-15T10:51:15;24.30;32.60
37412;DHT22;23278;52.110;6.050;2023-03-15T10:53:59;24.60;32.20
37412;DHT22;23278;52.110;6.050;2023-03-15T10:56:29;25.30;31.70
37412;DHT22;23278;52.110;6.050;2023-03-15T10:58:56;26.00;31.60
37412;DHT22;23278;52.110;6.050;2023-03-15T11:01:31;26.50;31.90
37412;DHT22;23278;52.110;6.050;2023-03-15T11:09:25;27.80;30.00
37412;DHT22;23278;52.110;6.050;2023-03-15T11:11:54;28.30;30.10
37412;DHT22;23278;52.110;6.050;2023-03-15T11:14:21;28.60;27.80
37412;DHT22;23278;52.110;6.050;2023-03-15T11:16:55;28.50;28.00
37412;DHT22;23278;52.110;6.050;2023-03-15T11:19:25;28.30;28.50
37412;DHT22;23278;52.110;6.050;2023-03-15T11:21:52;28.50;27.20
37412;DHT22;23278;52.110;6.050;2023-03-15T11:24:26;28.50;27.40
37412;DHT22;23278;52.110;6.050;2023-03-15T11:26:54;29.00;27.40
37412;DHT22;23278;52.110;6.050;2023-03-15T11:31:53;30.20;27.80
37412;DHT22;23278;52.110;6.050;2023-03-15T11:37:20;30.80;27.20
37412;DHT22;23278;52.110;6.050;2023-03-15T11:39:54;30.60;26.80
37412;DHT22;23278;52.110;6.050;2023-03-15T11:42:29;30.50;26.90
37412;DHT22;23278;52.110;6.050;2023-03-15T11:45:02;30.60;26.90
37412;DHT22;23278;52.110;6.050;2023-03-15T11:47:42;30.80;26.20
37412;DHT22;23278;52.110;6.050;2023-03-15T11:50:15;30.80;26.20
37412;DHT22;23278;52.110;6.050;2023-03-15T11:52:42;30.90;25.70
37412;DHT22;23278;52.110;6.050;2023-03-15T11:55:24;30.70;25.50
37412;DHT22;23278;52.110;6.050;2023-03-15T11:57:51;30.60;26.00
37412;DHT22;23278;52.110;6.050;2023-03-15T12:02:58;30.80;26.50
37412;DHT22;23278;52.110;6.050;2023-03-15T12:08:16;30.90;25.70
37412;DHT22;23278;52.110;6.050;2023-03-15T12:10:45;30.20;25.40
37412;DHT22;23278;52.110;6.050;2023-03-15T12:13:29;29.80;25.30
37412;DHT22;23278;52.110;6.050;2023-03-15T12:15:56;29.60;25.70
37412;DHT22;23278;52.110;6.050;2023-03-15T12:18:32;29.90;25.40
37412;DHT22;23278;52.110;6.050;2023-03-15T12:23:44;30.70;25.50
37412;DHT22;23278;52.110;6.050;2023-03-15T12:26:34;31.50;25.40
37412;DHT22;23278;52.110;6.050;2023-03-15T12:29:13;32.00;25.40
37412;DHT22;23278;52.110;6.050;2023-03-15T12:31:49;32.00;25.00
37412;DHT22;23278;52.110;6.050;2023-03-15T12:34:28;32.10;25.50
37412;DHT22;23278;52.110;6.050;2023-03-15T12:36:58;32.30;24.80
37412;DHT22;23278;52.110;6.050;2023-03-15T12:39:45;31.90;24.70
37412;DHT22;23278;52.110;6.050;2023-03-15T12:50:48;32.30;24.90
37412;DHT22;23278;52.110;6.050;2023-03-15T12:53:23;32.30;24.70
37412;DHT22;23278;52.110;6.050;2023-03-15T12:55:52;32.50;25.00
37412;DHT22;23278;52.110;6.050;2023-03-15T12:58:20;33.00;25.00
37412;DHT22;23278;52.110;6.050;2023-03-15T13:00:52;33.70;25.00
37412;DHT22;23278;52.110;6.050;2023-03-15T13:03:20;33.70;24.50
37412;DHT22;23278;52.110;6.050;2023-03-15T13:19:24;31.90;24.00
37412;DHT22;23278;52.110;6.050;2023-03-15T13:22:16;30.60;24.10
37412;DHT22;23278;52.110;6.050;2023-03-15T13:28:00;30.00;24.20
37412;DHT22;23278;52.110;6.050;2023-03-15T13:30:46;30.50;24.30
37412;DHT22;23278;52.110;6.050;2023-03-15T13:33:21;31.50;24.50
37412;DHT22;23278;52.110;6.050;2023-03-15T13:36:00;32.50;24.20
37412;DHT22;23278;52.110;6.050;2023-03-15T13:38:39;30.90;24.20
37412;DHT22;23278;52.110;6.050;2023-03-15T13:41:15;28.40;24.60
37412;DHT22;23278;52.110;6.050;2023-03-15T13:43:41;27.30;25.00
37412;DHT22;23278;52.110;6.050;2023-03-15T13:46:08;27.60;24.90
37412;DHT22;23278;52.110;6.050;2023-03-15T13:48:38;28.40;24.80
37412;DHT22;23278;52.110;6.050;2023-03-15T13:51:07;29.30;24.20
37412;DHT22;23278;52.110;6.050;2023-03-15T13:53:35;30.10;24.10
37412;DHT22;23278;52.110;6.050;2023-03-15T13:56:04;30.10;24.40
37412;DHT22;23278;52.110;6.050;2023-03-15T13:58:31;30.10;24.50
37412;DHT22;23278;52.110;6.050;2023-03-15T14:00:59;30.30;24.60
37412;DHT22;23278;52.110;6.050;2023-03-15T14:03:27;30.60;24.40
37412;DHT22;23278;52.110;6.050;2023-03-15T14:05:54;30.80;24.20
37412;DHT22;23278;52.110;6.050;2023-03-15T14:11:17;30.90;24.00
37412;DHT22;23278;52.110;6.050;2023-03-15T14:13:55;31.00;23.70
37412;DHT22;23278;52.110;6.050;2023-03-15T14:16:40;30.40;23.70
37412;DHT22;23278;52.110;6.050;2023-03-15T14:19:13;30.20;23.90
37412;DHT22;23278;52.110;6.050;2023-03-15T14:21:45;29.80;24.00
37412;DHT22;23278;52.110;6.050;2023-03-15T14:26:54;28.40;24.30
37412;DHT22;23278;52.110;6.050;2023-03-15T14:29:30;27.30;24.30
37412;DHT22;23278;52.110;6.050;2023-03-15T14:32:07;27.10;24.70
37412;DHT22;23278;52.110;6.050;2023-03-15T14:34:36;27.20;24.80
37412;DHT22;23278;52.110;6.050;2023-03-15T14:37:40;27.00;24.50
37412;DHT22;23278;52.110;6.050;2023-03-15T14:40:19;26.70;24.70
37412;DHT22;23278;52.110;6.050;2023-03-15T14:42:46;26.50;25.10
37412;DHT22;23278;52.110;6.050;2023-03-15T14:45:13;26.10;24.60
37412;DHT22;23278;52.110;6.050;2023-03-15T14:47:48;26.00;25.00
37412;DHT22;23278;52.110;6.050;2023-03-15T14:50:21;26.10;25.10
37412;DHT22;23278;52.110;6.050;2023-03-15T14:52:48;26.10;25.20
37412;DHT22;23278;52.110;6.050;2023-03-15T14:55:18;25.60;25.20
37412;DHT22;23278;52.110;6.050;2023-03-15T14:57:44;25.00;25.30
37412;DHT22;23278;52.110;6.050;2023-03-15T15:00:17;24.00;25.40
37412;DHT22;23278;52.110;6.050;2023-03-15T15:02:47;23.50;25.90
37412;DHT22;23278;52.110;6.050;2023-03-15T15:05:28;23.40;26.30
37412;DHT22;23278;52.110;6.050;2023-03-15T15:08:02;23.30;26.20
37412;DHT22;23278;52.110;6.050;2023-03-15T15:10:29;23.40;26.50
37412;DHT22;23278;52.110;6.050;2023-03-15T15:12:55;23.20;26.30
37412;DHT22;23278;52.110;6.050;2023-03-15T15:15:22;23.00;26.50
37412;DHT22;23278;52.110;6.050;2023-03-15T15:17:48;22.60;26.60
37412;DHT22;23278;52.110;6.050;2023-03-15T15:20:14;22.30;27.00
37412;DHT22;23278;52.110;6.050;2023-03-15T15:22:44;22.30;26.90
37412;DHT22;23278;52.110;6.050;2023-03-15T15:25:20;22.30;26.80
37412;DHT22;23278;52.110;6.050;2023-03-15T15:27:47;22.30;26.70
37412;DHT22;23278;52.110;6.050;2023-03-15T15:30:16;22.20;26.70
37412;DHT22;23278;52.110;6.050;2023-03-15T15:32:43;21.80;26.80
37412;DHT22;23278;52.110;6.050;2023-03-15T15:35:14;21.00;27.50
37412;DHT22;23278;52.110;6.050;2023-03-15T15:37:42;20.00;28.30
37412;DHT22;23278;52.110;6.050;2023-03-15T15:40:30;19.10;29.00
37412;DHT22;23278;52.110;6.050;2023-03-15T15:42:56;18.50;29.60
37412;DHT22;23278;52.110;6.050;2023-03-15T15:45:22;17.90;30.00
37412;DHT22;23278;52.110;6.050;2023-03-15T15:47:49;17.40;30.20
37412;DHT22;23278;52.110;6.050;2023-03-15T15:50:17;17.00;30.40
37412;DHT22;23278;52.110;6.050;2023-03-15T15:52:46;16.70;30.60
37412;DHT22;23278;52.110;6.050;2023-03-15T15:55:19;16.40;31.10
37412;DHT22;23278;52.110;6.050;2023-03-15T15:57:49;16.10;31.70
37412;DHT22;23278;52.110;6.050;2023-03-15T16:00:18;15.80;32.10
37412;DHT22;23278;52.110;6.050;2023-03-15T16:02:45;15.40;33.00
37412;DHT22;23278;52.110;6.050;2023-03-15T16:05:11;15.10;32.70
37412;DHT22;23278;52.110;6.050;2023-03-15T16:07:38;14.90;32.80
37412;DHT22;23278;52.110;6.050;2023-03-15T16:10:06;14.70;33.00
37412;DHT22;23278;52.110;6.050;2023-03-15T16:12:33;14.50;33.50
37412;DHT22;23278;52.110;6.050;2023-03-15T16:15:00;14.40;34.20
37412;DHT22;23278;52.110;6.050;2023-03-15T16:17:25;14.20;34.10
37412;DHT22;23278;52.110;6.050;2023-03-15T16:19:52;14.10;34.30
37412;DHT22;23278;52.110;6.050;2023-03-15T16:22:20;13.90;34.50
37412;DHT22;23278;52.110;6.050;2023-03-15T16:24:50;13.70;34.80
37412;DHT22;23278;52.110;6.050;2023-03-15T16:27:21;13.50;35.20
37412;DHT22;23278;52.110;6.050;2023-03-15T16:29:48;13.40;35.60
37412;DHT22;23278;52.110;6.050;2023-03-15T16:32:20;13.30;35.80
37412;DHT22;23278;52.110;6.050;2023-03-15T16:34:47;13.20;36.20
37412;DHT22;23278;52.110;6.050;2023-03-15T16:37:16;13.10;36.70
37412;DHT22;23278;52.110;6.050;2023-03-15T16:39:47;12.90;36.70
37412;DHT22;23278;52.110;6.050;2023-03-15T16:42:16;12.80;37.30
37412;DHT22;23278;52.110;6.050;2023-03-15T16:44:42;12.70;37.50
37412;DHT22;23278;52.110;6.050;2023-03-15T16:47:09;12.70;37.90
37412;DHT22;23278;52.110;6.050;2023-03-15T16:49:34;12.60;37.60
37412;DHT22;23278;52.110;6.050;2023-03-15T16:52:02;12.50;37.90
37412;DHT22;23278;52.110;6.050;2023-03-15T16:54:30;12.50;38.30
37412;DHT22;23278;52.110;6.050;2023-03-15T16:56:56;12.40;38.50
37412;DHT22;23278;52.110;6.050;2023-03-15T16:59:24;12.30;38.80
37412;DHT22;23278;52.110;6.050;2023-03-15T17:01:50;12.20;38.90
37412;DHT22;23278;52.110;6.050;2023-03-15T17:04:16;12.10;39.10
37412;DHT22;23278;52.110;6.050;2023-03-15T17:06:42;11.90;39.10
37412;DHT22;23278;52.110;6.050;2023-03-15T17:09:15;11.80;39.40
37412;DHT22;23278;52.110;6.050;2023-03-15T17:11:44;11.70;40.00
37412;DHT22;23278;52.110;6.050;2023-03-15T17:14:17;11.60;39.90
37412;DHT22;23278;52.110;6.050;2023-03-15T17:16:44;11.40;40.00
37412;DHT22;23278;52.110;6.050;2023-03-15T17:19:12;11.30;40.50
37412;DHT22;23278;52.110;6.050;2023-03-15T17:21:39;11.10;40.70
37412;DHT22;23278;52.110;6.050;2023-03-15T17:24:07;10.90;40.70
37412;DHT22;23278;52.110;6.050;2023-03-15T17:26:34;10.70;41.40
37412;DHT22;23278;52.110;6.050;2023-03-15T17:29:00;10.60;41.40